Terminal Aerodrome Forecast
Issued by NWS Wilmington, OH

Current Version | Previous Version | Text Only | Print | Product List | Glossary Off
Versions: 1 2 3 4 5 6 7 8 9 10 11 12 13 14 15 16 17 18 19 20 21 22 23 24 25

000
FTUS41 KILN 171123
TAFCVG
TAF
KCVG 171123Z 1712/1818 13008KT P6SM OVC016
     FM171700 15008KT P6SM BKN250
     FM180300 18012G18KT P6SM VCSH OVC060 WS020/20040KT
     FM180600 19012G20KT 6SM -SHRA OVC040 WS020/21045KT
     FM180900 20016G28KT 6SM -SHRA OVC025 WS020/21045KT
     FM181200 20016G30KT 4SM -SHRA BR OVC022=

USA.gov is the U.S. government's official web portal to all federal, state and local government web resources and services.